This is the latest recevied weather packets stored in our database for station/object OE-11140. If no packets are shown the sender has not sent any weather packets the latest 10 day(s).
| Time | Temp. | Humidity | Pressure | Rain* | Wind** | Luminosity | Snow |
|---|---|---|---|---|---|---|---|
| 1788474317 | 18.33° C | 70% | 1021.9 hPa | 0 mm | - | 0 W/m² | - |
| 1788473491 | 18.33° C | 71% | 1021.8 hPa | 0 mm | - | 0 W/m² | - |
| 1788472517 | 18.33° C | 71% | 1021.7 hPa | 0 mm | - | 0 W/m² | - |
| 1788471317 | 18.33° C | 72% | 1022 hPa | 0 mm | - | 0 W/m² | - |
| 1788470717 | 18.33° C | 70% | 1021.8 hPa | 0 mm | - | 0 W/m² | - |
| 1788469891 | 18.89° C | 69% | 1021.8 hPa | 0 mm | - | 0 W/m² | - |
| 1788468090 | 18.33° C | 72% | 1021.6 hPa | 0 mm | - | 0 W/m² | - |
| 1788467717 | 18.33° C | 74% | 1021.7 hPa | 0 mm | - | 0 W/m² | - |
| 1788467117 | 18.89° C | 72% | 1021.5 hPa | 0 mm | - | 0 W/m² | - |
| 1788466290 | 18.89° C | 71% | 1021.2 hPa | 0 mm | - | 0 W/m² | - |
| 1788465917 | 18.89° C | 70% | 1021.1 hPa | 0 mm | - | 0 W/m² | - |
| 1788465317 | 18.89° C | 72% | 1021.1 hPa | 0 mm | - | 0 W/m² | - |
| 1788464490 | 18.33° C | 74% | 1021.1 hPa | 0 mm | - | 0 W/m² | - |
| 1788463517 | 19.44° C | 68% | 1020.8 hPa | 0 mm | - | 0 W/m² | - |
| 1788450917 | 24.44° C | 43% | 1018.3 hPa | 0 mm | - | 205 W/m² | - |
| 1788449717 | 25° C | 41% | 1018.4 hPa | 0 mm | - | 179 W/m² | - |
| 1788448290 | 25.56° C | 39% | 1018.2 hPa | 0 mm | - | 517 W/m² | - |
| 1788447917 | 25.56° C | 39% | 1018.3 hPa | 0 mm | - | 530 W/m² | - |
| 1788446117 | 25° C | 41% | 1018.4 hPa | 0 mm | - | 371 W/m² | - |
| 1788444317 | 24.44° C | 44% | 1018.6 hPa | 0 mm | - | 331 W/m² | - |
| 1788443717 | 24.44° C | 42% | 1018.7 hPa | 0 mm | - | 411 W/m² | - |
| 1788442517 | 24.44° C | 43% | 1018.6 hPa | 0 mm | - | 285 W/m² | - |
| 1788441917 | 24.44° C | 41% | 1018.9 hPa | 0 mm | - | 371 W/m² | - |
| 1788440717 | 25° C | 41% | 1018.8 hPa | 0 mm | - | 398 W/m² | - |
| 1788438917 | 25° C | 40% | 1018.9 hPa | 0 mm | - | 404 W/m² | - |
* Rain latest hour (hover to see other rain measurements)
** Current wind speed in m/s (hover to see current wind gust speed)